sensor_id;sensor_type;location;lat;lon;timestamp;P1;durP1;ratioP1;P2;durP2;ratioP2
16484;SDS011;8353;47.856;12.344;2023-04-24T00:02:30;0.60;;;0.60;;
16484;SDS011;8353;47.856;12.344;2023-04-24T00:05:17;1.00;;;0.77;;
16484;SDS011;8353;47.856;12.344;2023-04-24T00:08:04;0.77;;;0.67;;
16484;SDS011;8353;47.856;12.344;2023-04-24T00:10:51;0.77;;;0.60;;
16484;SDS011;8353;47.856;12.344;2023-04-24T00:13:38;0.70;;;0.60;;
16484;SDS011;8353;47.856;12.344;2023-04-24T00:16:25;0.50;;;0.50;;
16484;SDS011;8353;47.856;12.344;2023-04-24T00:19:14;0.80;;;0.70;;
16484;SDS011;8353;47.856;12.344;2023-04-24T00:22:01;0.67;;;0.67;;
16484;SDS011;8353;47.856;12.344;2023-04-24T00:24:48;0.70;;;0.60;;
16484;SDS011;8353;47.856;12.344;2023-04-24T00:27:35;0.60;;;0.43;;
16484;SDS011;8353;47.856;12.344;2023-04-24T00:30:22;0.80;;;0.60;;
16484;SDS011;8353;47.856;12.344;2023-04-24T00:33:09;1.07;;;0.60;;
16484;SDS011;8353;47.856;12.344;2023-04-24T00:35:57;1.33;;;0.50;;
16484;SDS011;8353;47.856;12.344;2023-04-24T00:38:44;0.50;;;0.50;;
16484;SDS011;8353;47.856;12.344;2023-04-24T00:41:31;0.50;;;0.50;;
16484;SDS011;8353;47.856;12.344;2023-04-24T00:44:19;0.80;;;0.57;;
16484;SDS011;8353;47.856;12.344;2023-04-24T00:47:07;0.50;;;0.50;;
16484;SDS011;8353;47.856;12.344;2023-04-24T00:49:54;1.07;;;0.63;;
16484;SDS011;8353;47.856;12.344;2023-04-24T00:52:42;0.40;;;0.40;;
16484;SDS011;8353;47.856;12.344;2023-04-24T00:55:29;0.47;;;0.40;;
16484;SDS011;8353;47.856;12.344;2023-04-24T00:58:17;2.00;;;0.47;;
16484;SDS011;8353;47.856;12.344;2023-04-24T01:01:04;0.67;;;0.50;;
16484;SDS011;8353;47.856;12.344;2023-04-24T01:03:52;0.53;;;0.37;;
16484;SDS011;8353;47.856;12.344;2023-04-24T01:06:40;0.40;;;0.40;;
16484;SDS011;8353;47.856;12.344;2023-04-24T01:09:30;0.87;;;0.70;;
16484;SDS011;8353;47.856;12.344;2023-04-24T01:12:18;0.40;;;0.40;;
16484;SDS011;8353;47.856;12.344;2023-04-24T01:15:05;0.43;;;0.40;;
16484;SDS011;8353;47.856;12.344;2023-04-24T01:17:53;1.00;;;0.30;;
16484;SDS011;8353;47.856;12.344;2023-04-24T01:20:40;1.07;;;0.40;;
16484;SDS011;8353;47.856;12.344;2023-04-24T01:23:30;0.47;;;0.47;;
16484;SDS011;8353;47.856;12.344;2023-04-24T01:26:17;0.40;;;0.40;;
16484;SDS011;8353;47.856;12.344;2023-04-24T01:29:05;0.67;;;0.40;;
16484;SDS011;8353;47.856;12.344;2023-04-24T01:31:52;1.70;;;0.60;;
16484;SDS011;8353;47.856;12.344;2023-04-24T01:34:39;1.30;;;0.40;;
16484;SDS011;8353;47.856;12.344;2023-04-24T01:37:26;0.40;;;0.40;;
16484;SDS011;8353;47.856;12.344;2023-04-24T01:40:15;0.30;;;0.30;;
16484;SDS011;8353;47.856;12.344;2023-04-24T01:43:01;0.47;;;0.47;;
16484;SDS011;8353;47.856;12.344;2023-04-24T01:45:54;0.47;;;0.47;;
16484;SDS011;8353;47.856;12.344;2023-04-24T01:48:40;0.40;;;0.40;;
16484;SDS011;8353;47.856;12.344;2023-04-24T01:51:28;0.30;;;0.30;;
16484;SDS011;8353;47.856;12.344;2023-04-24T01:54:15;0.33;;;0.33;;
16484;SDS011;8353;47.856;12.344;2023-04-24T01:57:03;0.50;;;0.40;;
16484;SDS011;8353;47.856;12.344;2023-04-24T01:59:50;0.60;;;0.40;;
16484;SDS011;8353;47.856;12.344;2023-04-24T02:02:37;0.47;;;0.47;;
16484;SDS011;8353;47.856;12.344;2023-04-24T02:05:25;0.37;;;0.37;;
16484;SDS011;8353;47.856;12.344;2023-04-24T02:08:12;1.37;;;0.40;;
16484;SDS011;8353;47.856;12.344;2023-04-24T02:11:00;1.13;;;0.37;;
16484;SDS011;8353;47.856;12.344;2023-04-24T02:13:48;1.47;;;0.40;;
16484;SDS011;8353;47.856;12.344;2023-04-24T02:16:36;0.60;;;0.47;;
16484;SDS011;8353;47.856;12.344;2023-04-24T02:19:23;0.43;;;0.43;;
16484;SDS011;8353;47.856;12.344;2023-04-24T02:22:10;1.40;;;0.77;;
16484;SDS011;8353;47.856;12.344;2023-04-24T02:24:57;0.70;;;0.40;;
16484;SDS011;8353;47.856;12.344;2023-04-24T02:27:43;0.30;;;0.20;;
16484;SDS011;8353;47.856;12.344;2023-04-24T02:30:32;0.77;;;0.40;;
16484;SDS011;8353;47.856;12.344;2023-04-24T02:33:18;0.33;;;0.33;;
16484;SDS011;8353;47.856;12.344;2023-04-24T02:36:06;1.50;;;0.70;;
16484;SDS011;8353;47.856;12.344;2023-04-24T02:38:53;0.50;;;0.50;;
16484;SDS011;8353;47.856;12.344;2023-04-24T02:41:39;0.30;;;0.30;;
16484;SDS011;8353;47.856;12.344;2023-04-24T02:44:26;0.90;;;0.50;;
16484;SDS011;8353;47.856;12.344;2023-04-24T02:47:15;0.33;;;0.33;;
16484;SDS011;8353;47.856;12.344;2023-04-24T02:50:01;0.50;;;0.40;;
16484;SDS011;8353;47.856;12.344;2023-04-24T02:52:49;0.70;;;0.50;;
16484;SDS011;8353;47.856;12.344;2023-04-24T02:55:36;0.73;;;0.40;;
16484;SDS011;8353;47.856;12.344;2023-04-24T02:58:22;0.30;;;0.30;;
16484;SDS011;8353;47.856;12.344;2023-04-24T03:01:10;0.87;;;0.30;;
16484;SDS011;8353;47.856;12.344;2023-04-24T03:03:58;1.30;;;0.30;;
16484;SDS011;8353;47.856;12.344;2023-04-24T03:06:45;1.10;;;0.33;;
16484;SDS011;8353;47.856;12.344;2023-04-24T03:09:31;1.30;;;0.50;;
16484;SDS011;8353;47.856;12.344;2023-04-24T03:12:18;0.50;;;0.40;;
16484;SDS011;8353;47.856;12.344;2023-04-24T03:15:06;0.23;;;0.23;;
16484;SDS011;8353;47.856;12.344;2023-04-24T03:17:53;0.40;;;0.30;;
16484;SDS011;8353;47.856;12.344;2023-04-24T03:20:41;1.17;;;0.40;;
16484;SDS011;8353;47.856;12.344;2023-04-24T03:23:29;0.70;;;0.50;;
16484;SDS011;8353;47.856;12.344;2023-04-24T03:26:15;0.30;;;0.30;;
16484;SDS011;8353;47.856;12.344;2023-04-24T03:29:02;1.80;;;0.50;;
16484;SDS011;8353;47.856;12.344;2023-04-24T03:31:49;0.67;;;0.40;;
16484;SDS011;8353;47.856;12.344;2023-04-24T03:34:36;0.60;;;0.30;;
16484;SDS011;8353;47.856;12.344;2023-04-24T03:37:24;0.53;;;0.30;;
16484;SDS011;8353;47.856;12.344;2023-04-24T03:40:11;0.50;;;0.50;;
16484;SDS011;8353;47.856;12.344;2023-04-24T03:42:58;0.43;;;0.40;;
16484;SDS011;8353;47.856;12.344;2023-04-24T03:45:45;0.47;;;0.47;;
16484;SDS011;8353;47.856;12.344;2023-04-24T03:48:32;0.90;;;0.40;;
16484;SDS011;8353;47.856;12.344;2023-04-24T03:51:19;1.20;;;0.80;;
16484;SDS011;8353;47.856;12.344;2023-04-24T03:54:07;0.70;;;0.50;;
16484;SDS011;8353;47.856;12.344;2023-04-24T03:56:54;0.93;;;0.40;;
16484;SDS011;8353;47.856;12.344;2023-04-24T03:59:40;1.07;;;0.40;;
16484;SDS011;8353;47.856;12.344;2023-04-24T04:02:27;0.30;;;0.30;;
16484;SDS011;8353;47.856;12.344;2023-04-24T04:05:14;2.00;;;0.40;;
16484;SDS011;8353;47.856;12.344;2023-04-24T04:08:01;0.43;;;0.43;;
16484;SDS011;8353;47.856;12.344;2023-04-24T04:10:49;1.07;;;0.40;;
16484;SDS011;8353;47.856;12.344;2023-04-24T04:13:36;0.40;;;0.40;;
16484;SDS011;8353;47.856;12.344;2023-04-24T04:16:23;0.63;;;0.50;;
16484;SDS011;8353;47.856;12.344;2023-04-24T04:19:10;1.43;;;0.50;;
16484;SDS011;8353;47.856;12.344;2023-04-24T04:21:57;0.60;;;0.57;;
16484;SDS011;8353;47.856;12.344;2023-04-24T04:24:44;0.30;;;0.30;;
16484;SDS011;8353;47.856;12.344;2023-04-24T04:27:35;1.50;;;0.70;;
16484;SDS011;8353;47.856;12.344;2023-04-24T04:30:22;1.27;;;0.40;;
16484;SDS011;8353;47.856;12.344;2023-04-24T04:33:09;0.40;;;0.30;;
16484;SDS011;8353;47.856;12.344;2023-04-24T04:35:56;1.40;;;0.40;;
16484;SDS011;8353;47.856;12.344;2023-04-24T04:38:43;0.23;;;0.23;;
16484;SDS011;8353;47.856;12.344;2023-04-24T04:41:30;0.70;;;0.60;;
16484;SDS011;8353;47.856;12.344;2023-04-24T04:44:18;0.30;;;0.30;;
16484;SDS011;8353;47.856;12.344;2023-04-24T04:47:05;1.73;;;0.53;;
16484;SDS011;8353;47.856;12.344;2023-04-24T04:49:52;1.47;;;0.80;;
16484;SDS011;8353;47.856;12.344;2023-04-24T04:52:39;0.73;;;0.73;;
16484;SDS011;8353;47.856;12.344;2023-04-24T04:55:27;0.30;;;0.30;;
16484;SDS011;8353;47.856;12.344;2023-04-24T04:58:14;0.77;;;0.30;;
16484;SDS011;8353;47.856;12.344;2023-04-24T05:01:02;0.37;;;0.37;;
16484;SDS011;8353;47.856;12.344;2023-04-24T05:03:50;0.83;;;0.83;;
16484;SDS011;8353;47.856;12.344;2023-04-24T05:06:36;1.37;;;1.20;;
16484;SDS011;8353;47.856;12.344;2023-04-24T05:09:23;1.20;;;1.10;;
16484;SDS011;8353;47.856;12.344;2023-04-24T05:12:12;0.80;;;0.80;;
16484;SDS011;8353;47.856;12.344;2023-04-24T05:14:59;0.73;;;0.70;;
16484;SDS011;8353;47.856;12.344;2023-04-24T05:17:47;0.70;;;0.70;;
16484;SDS011;8353;47.856;12.344;2023-04-24T05:20:34;0.60;;;0.60;;
16484;SDS011;8353;47.856;12.344;2023-04-24T05:23:21;1.43;;;0.80;;
16484;SDS011;8353;47.856;12.344;2023-04-24T05:26:08;0.60;;;0.60;;
16484;SDS011;8353;47.856;12.344;2023-04-24T05:28:55;0.70;;;0.60;;
16484;SDS011;8353;47.856;12.344;2023-04-24T05:31:42;3.43;;;1.10;;
16484;SDS011;8353;47.856;12.344;2023-04-24T05:34:30;1.03;;;0.60;;
16484;SDS011;8353;47.856;12.344;2023-04-24T05:37:17;0.70;;;0.60;;
16484;SDS011;8353;47.856;12.344;2023-04-24T05:40:05;0.90;;;0.50;;
16484;SDS011;8353;47.856;12.344;2023-04-24T05:42:52;1.23;;;0.70;;
16484;SDS011;8353;47.856;12.344;2023-04-24T05:45:39;1.10;;;0.90;;
16484;SDS011;8353;47.856;12.344;2023-04-24T05:48:28;0.80;;;0.70;;
16484;SDS011;8353;47.856;12.344;2023-04-24T05:51:22;0.60;;;0.57;;
16484;SDS011;8353;47.856;12.344;2023-04-24T05:54:08;0.40;;;0.40;;
16484;SDS011;8353;47.856;12.344;2023-04-24T05:56:57;0.50;;;0.50;;
16484;SDS011;8353;47.856;12.344;2023-04-24T05:59:44;1.13;;;1.03;;
16484;SDS011;8353;47.856;12.344;2023-04-24T06:02:31;0.97;;;0.60;;
16484;SDS011;8353;47.856;12.344;2023-04-24T06:05:18;0.77;;;0.50;;
16484;SDS011;8353;47.856;12.344;2023-04-24T06:08:06;1.27;;;0.80;;
16484;SDS011;8353;47.856;12.344;2023-04-24T06:10:53;1.00;;;0.90;;
16484;SDS011;8353;47.856;12.344;2023-04-24T06:13:40;1.43;;;0.60;;
16484;SDS011;8353;47.856;12.344;2023-04-24T06:16:29;0.50;;;0.50;;
16484;SDS011;8353;47.856;12.344;2023-04-24T06:19:17;1.07;;;0.50;;
16484;SDS011;8353;47.856;12.344;2023-04-24T06:22:03;0.37;;;0.37;;
16484;SDS011;8353;47.856;12.344;2023-04-24T06:24:52;0.70;;;0.60;;
16484;SDS011;8353;47.856;12.344;2023-04-24T06:27:38;0.50;;;0.50;;
16484;SDS011;8353;47.856;12.344;2023-04-24T06:30:27;0.77;;;0.60;;
16484;SDS011;8353;47.856;12.344;2023-04-24T06:36:49;2.40;;;1.20;;
16484;SDS011;8353;47.856;12.344;2023-04-24T06:39:38;1.37;;;0.50;;
16484;SDS011;8353;47.856;12.344;2023-04-24T06:42:22;1.07;;;0.40;;
16484;SDS011;8353;47.856;12.344;2023-04-24T06:45:10;1.13;;;0.50;;
16484;SDS011;8353;47.856;12.344;2023-04-24T06:47:57;1.43;;;0.70;;
16484;SDS011;8353;47.856;12.344;2023-04-24T06:50:43;1.57;;;0.60;;
16484;SDS011;8353;47.856;12.344;2023-04-24T06:53:31;0.57;;;0.50;;
16484;SDS011;8353;47.856;12.344;2023-04-24T06:56:18;2.00;;;1.20;;
16484;SDS011;8353;47.856;12.344;2023-04-24T06:59:07;0.70;;;0.40;;
16484;SDS011;8353;47.856;12.344;2023-04-24T07:01:54;0.80;;;0.50;;
16484;SDS011;8353;47.856;12.344;2023-04-24T07:04:41;0.50;;;0.43;;
16484;SDS011;8353;47.856;12.344;2023-04-24T07:07:28;1.40;;;0.50;;
16484;SDS011;8353;47.856;12.344;2023-04-24T07:10:15;0.97;;;0.60;;
16484;SDS011;8353;47.856;12.344;2023-04-24T07:13:03;2.00;;;0.50;;
16484;SDS011;8353;47.856;12.344;2023-04-24T07:15:51;1.17;;;0.80;;
16484;SDS011;8353;47.856;12.344;2023-04-24T07:18:41;1.00;;;0.90;;
16484;SDS011;8353;47.856;12.344;2023-04-24T07:21:27;1.30;;;1.10;;
16484;SDS011;8353;47.856;12.344;2023-04-24T07:24:16;0.83;;;0.80;;
16484;SDS011;8353;47.856;12.344;2023-04-24T07:27:03;0.77;;;0.60;;
16484;SDS011;8353;47.856;12.344;2023-04-24T07:29:50;1.70;;;0.67;;
16484;SDS011;8353;47.856;12.344;2023-04-24T07:32:38;0.40;;;0.40;;
16484;SDS011;8353;47.856;12.344;2023-04-24T07:35:25;1.33;;;0.90;;
16484;SDS011;8353;47.856;12.344;2023-04-24T07:38:19;0.50;;;0.50;;
16484;SDS011;8353;47.856;12.344;2023-04-24T07:41:07;1.13;;;0.70;;
16484;SDS011;8353;47.856;12.344;2023-04-24T07:43:54;1.67;;;0.80;;
16484;SDS011;8353;47.856;12.344;2023-04-24T07:46:40;0.73;;;0.50;;
16484;SDS011;8353;47.856;12.344;2023-04-24T07:49:29;0.80;;;0.60;;
16484;SDS011;8353;47.856;12.344;2023-04-24T07:52:16;1.80;;;0.60;;
16484;SDS011;8353;47.856;12.344;2023-04-24T07:55:03;0.40;;;0.40;;
16484;SDS011;8353;47.856;12.344;2023-04-24T07:57:51;0.63;;;0.53;;
16484;SDS011;8353;47.856;12.344;2023-04-24T08:00:40;1.67;;;0.53;;
16484;SDS011;8353;47.856;12.344;2023-04-24T08:03:27;0.50;;;0.50;;
16484;SDS011;8353;47.856;12.344;2023-04-24T08:06:15;1.50;;;0.40;;
16484;SDS011;8353;47.856;12.344;2023-04-24T08:09:02;2.87;;;0.67;;
16484;SDS011;8353;47.856;12.344;2023-04-24T08:11:54;1.30;;;0.70;;
16484;SDS011;8353;47.856;12.344;2023-04-24T08:14:41;0.50;;;0.40;;
16484;SDS011;8353;47.856;12.344;2023-04-24T08:17:28;0.57;;;0.40;;
16484;SDS011;8353;47.856;12.344;2023-04-24T08:20:15;0.40;;;0.40;;
16484;SDS011;8353;47.856;12.344;2023-04-24T08:23:04;0.63;;;0.40;;
16484;SDS011;8353;47.856;12.344;2023-04-24T08:25:54;1.10;;;0.30;;
16484;SDS011;8353;47.856;12.344;2023-04-24T08:28:42;1.23;;;0.40;;
16484;SDS011;8353;47.856;12.344;2023-04-24T08:31:29;0.50;;;0.40;;
16484;SDS011;8353;47.856;12.344;2023-04-24T08:34:16;0.70;;;0.37;;
16484;SDS011;8353;47.856;12.344;2023-04-24T08:37:02;0.27;;;0.27;;
16484;SDS011;8353;47.856;12.344;2023-04-24T08:39:51;0.43;;;0.40;;
16484;SDS011;8353;47.856;12.344;2023-04-24T08:42:38;0.70;;;0.40;;
16484;SDS011;8353;47.856;12.344;2023-04-24T08:45:27;2.30;;;0.50;;
16484;SDS011;8353;47.856;12.344;2023-04-24T08:48:16;0.40;;;0.30;;
16484;SDS011;8353;47.856;12.344;2023-04-24T08:51:03;1.03;;;0.60;;
16484;SDS011;8353;47.856;12.344;2023-04-24T08:53:54;0.50;;;0.47;;
16484;SDS011;8353;47.856;12.344;2023-04-24T08:56:42;0.40;;;0.40;;
16484;SDS011;8353;47.856;12.344;2023-04-24T08:59:30;0.70;;;0.50;;
16484;SDS011;8353;47.856;12.344;2023-04-24T09:02:17;0.50;;;0.30;;
16484;SDS011;8353;47.856;12.344;2023-04-24T09:05:04;0.50;;;0.30;;
16484;SDS011;8353;47.856;12.344;2023-04-24T09:07:56;2.50;;;0.30;;
16484;SDS011;8353;47.856;12.344;2023-04-24T09:10:43;0.77;;;0.30;;
16484;SDS011;8353;47.856;12.344;2023-04-24T09:13:36;1.97;;;0.40;;
16484;SDS011;8353;47.856;12.344;2023-04-24T09:16:23;1.60;;;0.37;;
16484;SDS011;8353;47.856;12.344;2023-04-24T09:19:11;1.33;;;0.70;;
16484;SDS011;8353;47.856;12.344;2023-04-24T09:21:58;0.37;;;0.37;;
16484;SDS011;8353;47.856;12.344;2023-04-24T09:24:45;0.70;;;0.40;;
16484;SDS011;8353;47.856;12.344;2023-04-24T09:27:32;1.40;;;0.40;;
16484;SDS011;8353;47.856;12.344;2023-04-24T09:30:21;0.63;;;0.43;;
16484;SDS011;8353;47.856;12.344;2023-04-24T09:33:12;0.30;;;0.30;;
16484;SDS011;8353;47.856;12.344;2023-04-24T09:36:00;0.47;;;0.47;;
16484;SDS011;8353;47.856;12.344;2023-04-24T09:38:48;1.57;;;0.60;;
16484;SDS011;8353;47.856;12.344;2023-04-24T09:41:43;0.60;;;0.40;;
16484;SDS011;8353;47.856;12.344;2023-04-24T09:44:31;0.43;;;0.43;;
16484;SDS011;8353;47.856;12.344;2023-04-24T09:47:22;0.37;;;0.30;;
16484;SDS011;8353;47.856;12.344;2023-04-24T09:50:09;0.93;;;0.70;;
16484;SDS011;8353;47.856;12.344;2023-04-24T09:52:58;0.63;;;0.50;;
16484;SDS011;8353;47.856;12.344;2023-04-24T09:55:47;0.80;;;0.60;;
16484;SDS011;8353;47.856;12.344;2023-04-24T09:58:35;1.07;;;0.60;;
16484;SDS011;8353;47.856;12.344;2023-04-24T10:01:29;0.40;;;0.40;;
16484;SDS011;8353;47.856;12.344;2023-04-24T10:04:19;0.73;;;0.70;;
16484;SDS011;8353;47.856;12.344;2023-04-24T10:07:07;1.00;;;0.90;;
16484;SDS011;8353;47.856;12.344;2023-04-24T10:09:55;1.17;;;0.70;;
16484;SDS011;8353;47.856;12.344;2023-04-24T10:12:42;0.87;;;0.70;;
16484;SDS011;8353;47.856;12.344;2023-04-24T10:15:30;0.70;;;0.70;;
16484;SDS011;8353;47.856;12.344;2023-04-24T10:18:18;1.10;;;0.80;;
16484;SDS011;8353;47.856;12.344;2023-04-24T10:21:08;1.47;;;0.80;;
16484;SDS011;8353;47.856;12.344;2023-04-24T10:23:55;0.90;;;0.60;;
16484;SDS011;8353;47.856;12.344;2023-04-24T10:26:43;0.97;;;0.90;;
16484;SDS011;8353;47.856;12.344;2023-04-24T10:29:30;0.97;;;0.50;;
16484;SDS011;8353;47.856;12.344;2023-04-24T10:32:19;0.50;;;0.50;;
16484;SDS011;8353;47.856;12.344;2023-04-24T10:35:06;0.70;;;0.70;;
16484;SDS011;8353;47.856;12.344;2023-04-24T10:37:57;0.77;;;0.67;;
16484;SDS011;8353;47.856;12.344;2023-04-24T10:40:48;1.07;;;0.70;;
16484;SDS011;8353;47.856;12.344;2023-04-24T10:43:39;1.00;;;0.70;;
16484;SDS011;8353;47.856;12.344;2023-04-24T10:46:26;0.93;;;0.73;;
16484;SDS011;8353;47.856;12.344;2023-04-24T10:49:16;0.97;;;0.70;;
16484;SDS011;8353;47.856;12.344;2023-04-24T10:52:03;1.23;;;0.70;;
16484;SDS011;8353;47.856;12.344;2023-04-24T10:54:52;1.90;;;0.60;;
16484;SDS011;8353;47.856;12.344;2023-04-24T10:58:04;1.43;;;0.90;;
16484;SDS011;8353;47.856;12.344;2023-04-24T11:00:55;1.00;;;0.80;;
16484;SDS011;8353;47.856;12.344;2023-04-24T11:03:44;0.80;;;0.50;;
16484;SDS011;8353;47.856;12.344;2023-04-24T11:06:40;3.07;;;0.73;;
16484;SDS011;8353;47.856;12.344;2023-04-24T11:09:28;0.57;;;0.57;;
16484;SDS011;8353;47.856;12.344;2023-04-24T11:12:19;0.90;;;0.77;;
16484;SDS011;8353;47.856;12.344;2023-04-24T11:15:06;1.00;;;0.80;;
16484;SDS011;8353;47.856;12.344;2023-04-24T11:17:58;0.70;;;0.70;;
16484;SDS011;8353;47.856;12.344;2023-04-24T11:20:45;1.30;;;0.80;;
16484;SDS011;8353;47.856;12.344;2023-04-24T11:23:35;1.23;;;0.90;;
16484;SDS011;8353;47.856;12.344;2023-04-24T11:26:23;1.57;;;0.70;;
16484;SDS011;8353;47.856;12.344;2023-04-24T11:29:16;1.08;;;0.90;;
16484;SDS011;8353;47.856;12.344;2023-04-24T11:32:16;2.83;;;1.00;;
16484;SDS011;8353;47.856;12.344;2023-04-24T11:35:05;0.80;;;0.80;;
16484;SDS011;8353;47.856;12.344;2023-04-24T11:37:54;0.73;;;0.70;;
16484;SDS011;8353;47.856;12.344;2023-04-24T11:40:41;4.70;;;2.00;;
16484;SDS011;8353;47.856;12.344;2023-04-24T11:43:32;0.70;;;0.70;;
16484;SDS011;8353;47.856;12.344;2023-04-24T11:46:22;1.23;;;0.90;;
16484;SDS011;8353;47.856;12.344;2023-04-24T11:49:12;1.02;;;0.70;;
16484;SDS011;8353;47.856;12.344;2023-04-24T11:51:59;2.83;;;0.80;;
16484;SDS011;8353;47.856;12.344;2023-04-24T11:54:47;2.17;;;0.70;;
16484;SDS011;8353;47.856;12.344;2023-04-24T11:57:35;2.17;;;0.93;;
16484;SDS011;8353;47.856;12.344;2023-04-24T12:00:22;1.52;;;0.90;;
16484;SDS011;8353;47.856;12.344;2023-04-24T12:03:12;1.48;;;0.90;;
16484;SDS011;8353;47.856;12.344;2023-04-24T12:06:06;1.60;;;1.03;;
16484;SDS011;8353;47.856;12.344;2023-04-24T12:08:55;0.90;;;0.63;;
16484;SDS011;8353;47.856;12.344;2023-04-24T12:11:52;1.57;;;1.10;;
16484;SDS011;8353;47.856;12.344;2023-04-24T12:14:43;0.70;;;0.70;;
16484;SDS011;8353;47.856;12.344;2023-04-24T12:17:31;2.53;;;0.95;;
16484;SDS011;8353;47.856;12.344;2023-04-24T12:20:24;0.80;;;0.80;;
16484;SDS011;8353;47.856;12.344;2023-04-24T12:23:13;1.10;;;1.00;;
16484;SDS011;8353;47.856;12.344;2023-04-24T12:26:00;1.43;;;0.70;;
16484;SDS011;8353;47.856;12.344;2023-04-24T12:28:48;0.60;;;0.60;;
16484;SDS011;8353;47.856;12.344;2023-04-24T12:31:35;1.03;;;0.67;;
16484;SDS011;8353;47.856;12.344;2023-04-24T12:34:23;1.50;;;0.67;;
16484;SDS011;8353;47.856;12.344;2023-04-24T12:37:12;0.83;;;0.70;;
16484;SDS011;8353;47.856;12.344;2023-04-24T12:40:00;1.10;;;0.80;;
16484;SDS011;8353;47.856;12.344;2023-04-24T12:42:49;0.80;;;0.50;;
16484;SDS011;8353;47.856;12.344;2023-04-24T12:45:37;0.70;;;0.70;;
16484;SDS011;8353;47.856;12.344;2023-04-24T12:48:24;1.03;;;0.93;;
16484;SDS011;8353;47.856;12.344;2023-04-24T12:51:11;0.90;;;0.70;;
16484;SDS011;8353;47.856;12.344;2023-04-24T12:53:59;2.13;;;1.23;;
16484;SDS011;8353;47.856;12.344;2023-04-24T12:56:46;1.50;;;0.73;;
16484;SDS011;8353;47.856;12.344;2023-04-24T12:59:33;1.53;;;0.60;;
16484;SDS011;8353;47.856;12.344;2023-04-24T13:02:20;1.47;;;0.87;;
16484;SDS011;8353;47.856;12.344;2023-04-24T13:05:08;0.90;;;0.70;;
16484;SDS011;8353;47.856;12.344;2023-04-24T13:07:56;2.33;;;0.70;;
16484;SDS011;8353;47.856;12.344;2023-04-24T13:10:44;1.30;;;1.13;;
16484;SDS011;8353;47.856;12.344;2023-04-24T13:13:32;0.93;;;0.80;;
16484;SDS011;8353;47.856;12.344;2023-04-24T13:16:18;1.00;;;0.80;;
16484;SDS011;8353;47.856;12.344;2023-04-24T13:19:05;0.83;;;0.70;;
16484;SDS011;8353;47.856;12.344;2023-04-24T13:21:52;0.73;;;0.67;;
16484;SDS011;8353;47.856;12.344;2023-04-24T13:24:40;0.70;;;0.70;;
16484;SDS011;8353;47.856;12.344;2023-04-24T13:27:28;0.77;;;0.77;;
16484;SDS011;8353;47.856;12.344;2023-04-24T13:30:15;1.07;;;0.73;;
16484;SDS011;8353;47.856;12.344;2023-04-24T13:33:02;1.40;;;0.80;;
16484;SDS011;8353;47.856;12.344;2023-04-24T13:35:49;0.50;;;0.50;;
16484;SDS011;8353;47.856;12.344;2023-04-24T13:38:36;0.60;;;0.60;;
16484;SDS011;8353;47.856;12.344;2023-04-24T13:41:28;0.77;;;0.50;;
16484;SDS011;8353;47.856;12.344;2023-04-24T13:44:17;1.23;;;0.50;;
16484;SDS011;8353;47.856;12.344;2023-04-24T13:47:04;0.73;;;0.60;;
16484;SDS011;8353;47.856;12.344;2023-04-24T13:49:51;1.00;;;0.83;;
16484;SDS011;8353;47.856;12.344;2023-04-24T13:52:39;0.80;;;0.80;;
16484;SDS011;8353;47.856;12.344;2023-04-24T13:55:26;0.60;;;0.60;;
16484;SDS011;8353;47.856;12.344;2023-04-24T13:58:13;0.90;;;0.70;;
16484;SDS011;8353;47.856;12.344;2023-04-24T14:01:03;2.00;;;0.90;;
16484;SDS011;8353;47.856;12.344;2023-04-24T14:03:52;1.87;;;1.33;;
16484;SDS011;8353;47.856;12.344;2023-04-24T14:06:40;3.23;;;1.43;;
16484;SDS011;8353;47.856;12.344;2023-04-24T14:09:27;1.37;;;0.93;;
16484;SDS011;8353;47.856;12.344;2023-04-24T14:12:14;1.23;;;0.60;;
16484;SDS011;8353;47.856;12.344;2023-04-24T14:15:03;1.93;;;0.83;;
16484;SDS011;8353;47.856;12.344;2023-04-24T14:17:52;0.93;;;0.60;;
16484;SDS011;8353;47.856;12.344;2023-04-24T14:20:40;1.90;;;0.70;;
16484;SDS011;8353;47.856;12.344;2023-04-24T14:23:27;1.40;;;0.90;;
16484;SDS011;8353;47.856;12.344;2023-04-24T14:26:14;0.90;;;0.90;;
16484;SDS011;8353;47.856;12.344;2023-04-24T14:29:01;1.10;;;0.60;;
16484;SDS011;8353;47.856;12.344;2023-04-24T14:31:50;0.63;;;0.60;;
16484;SDS011;8353;47.856;12.344;2023-04-24T14:34:40;0.87;;;0.60;;
16484;SDS011;8353;47.856;12.344;2023-04-24T14:37:51;1.67;;;0.70;;
16484;SDS011;8353;47.856;12.344;2023-04-24T14:40:39;1.57;;;0.80;;
16484;SDS011;8353;47.856;12.344;2023-04-24T14:43:26;1.10;;;1.00;;
16484;SDS011;8353;47.856;12.344;2023-04-24T14:46:13;1.67;;;1.03;;
16484;SDS011;8353;47.856;12.344;2023-04-24T14:49:00;1.40;;;0.90;;
16484;SDS011;8353;47.856;12.344;2023-04-24T14:51:48;1.27;;;1.17;;
16484;SDS011;8353;47.856;12.344;2023-04-24T14:54:35;1.53;;;0.80;;
16484;SDS011;8353;47.856;12.344;2023-04-24T14:57:22;1.17;;;0.90;;
16484;SDS011;8353;47.856;12.344;2023-04-24T15:00:09;1.10;;;0.80;;
16484;SDS011;8353;47.856;12.344;2023-04-24T15:02:57;1.53;;;0.90;;
16484;SDS011;8353;47.856;12.344;2023-04-24T15:05:43;1.67;;;0.77;;
16484;SDS011;8353;47.856;12.344;2023-04-24T15:08:34;1.17;;;0.90;;
16484;SDS011;8353;47.856;12.344;2023-04-24T15:11:20;2.43;;;0.93;;
16484;SDS011;8353;47.856;12.344;2023-04-24T15:14:07;2.23;;;0.87;;
16484;SDS011;8353;47.856;12.344;2023-04-24T15:16:57;2.93;;;1.17;;
16484;SDS011;8353;47.856;12.344;2023-04-24T15:19:44;0.80;;;0.80;;
16484;SDS011;8353;47.856;12.344;2023-04-24T15:22:31;1.33;;;1.20;;
16484;SDS011;8353;47.856;12.344;2023-04-24T15:25:23;1.90;;;1.70;;
16484;SDS011;8353;47.856;12.344;2023-04-24T15:28:20;1.53;;;1.07;;
16484;SDS011;8353;47.856;12.344;2023-04-24T15:31:08;2.60;;;1.20;;
16484;SDS011;8353;47.856;12.344;2023-04-24T15:33:54;1.63;;;1.27;;
16484;SDS011;8353;47.856;12.344;2023-04-24T15:36:41;1.20;;;0.90;;
16484;SDS011;8353;47.856;12.344;2023-04-24T15:39:28;1.00;;;0.90;;
16484;SDS011;8353;47.856;12.344;2023-04-24T15:42:17;1.47;;;1.00;;
16484;SDS011;8353;47.856;12.344;2023-04-24T15:45:04;1.87;;;1.20;;
16484;SDS011;8353;47.856;12.344;2023-04-24T15:47:51;3.80;;;1.73;;
16484;SDS011;8353;47.856;12.344;2023-04-24T15:50:38;1.10;;;0.83;;
16484;SDS011;8353;47.856;12.344;2023-04-24T15:53:26;1.83;;;1.30;;
16484;SDS011;8353;47.856;12.344;2023-04-24T15:56:13;1.15;;;0.90;;
16484;SDS011;8353;47.856;12.344;2023-04-24T15:59:01;1.73;;;0.83;;
16484;SDS011;8353;47.856;12.344;2023-04-24T16:01:48;1.85;;;1.10;;
16484;SDS011;8353;47.856;12.344;2023-04-24T16:04:35;2.63;;;1.33;;
16484;SDS011;8353;47.856;12.344;2023-04-24T16:07:22;2.13;;;1.38;;
16484;SDS011;8353;47.856;12.344;2023-04-24T16:10:09;1.55;;;1.00;;
16484;SDS011;8353;47.856;12.344;2023-04-24T16:12:58;1.40;;;1.10;;
16484;SDS011;8353;47.856;12.344;2023-04-24T16:15:48;1.92;;;1.40;;
16484;SDS011;8353;47.856;12.344;2023-04-24T16:18:36;2.63;;;1.05;;
16484;SDS011;8353;47.856;12.344;2023-04-24T16:21:22;1.70;;;1.33;;
16484;SDS011;8353;47.856;12.344;2023-04-24T16:24:09;1.75;;;1.00;;
16484;SDS011;8353;47.856;12.344;2023-04-24T16:26:56;1.25;;;0.80;;
16484;SDS011;8353;47.856;12.344;2023-04-24T16:29:43;2.75;;;1.13;;
16484;SDS011;8353;47.856;12.344;2023-04-24T16:32:32;2.73;;;1.20;;
16484;SDS011;8353;47.856;12.344;2023-04-24T16:35:18;2.40;;;1.53;;
16484;SDS011;8353;47.856;12.344;2023-04-24T16:38:05;2.47;;;1.00;;
16484;SDS011;8353;47.856;12.344;2023-04-24T16:40:52;1.03;;;0.97;;
16484;SDS011;8353;47.856;12.344;2023-04-24T16:43:39;4.73;;;1.10;;
16484;SDS011;8353;47.856;12.344;2023-04-24T16:46:26;2.10;;;0.90;;
16484;SDS011;8353;47.856;12.344;2023-04-24T16:49:14;1.57;;;1.47;;
16484;SDS011;8353;47.856;12.344;2023-04-24T16:52:01;1.27;;;1.07;;
16484;SDS011;8353;47.856;12.344;2023-04-24T16:54:48;1.07;;;0.87;;
16484;SDS011;8353;47.856;12.344;2023-04-24T16:57:37;2.47;;;1.50;;